Time;durP1;ratioP1;P1;durP2;ratioP2;P2;SDS_P1;SDS_P2;PMS_P1;PMS_P2;Temp;Humidity;BMP_temperature;BMP_pressure;BME280_temperature;BME280_humidity;BME280_pressure;Samples;Min_cycle;Max_cycle;Signal;HPM_P1;HPM_P2
2021/12/10 00:04:00;;;;;;;9.05;5.93;;;3.30;99.90;;;;;;7269428;32;20180;-61
2021/12/10 00:08:04;;;;;;;8.65;5.25;;;3.40;99.90;;;;;;7273772;32;20136;-58
2021/12/10 00:12:18;;;;;;;8.77;5.35;;;3.40;99.90;;;;;;7268340;32;20136;-58
2021/12/10 00:16:20;;;;;;;9.90;5.72;;;3.40;99.90;;;;;;7273340;32;20266;-59
2021/12/10 00:20:25;;;;;;;9.60;5.90;;;3.50;99.90;;;;;;7273974;32;20132;-58
2021/12/10 00:24:29;;;;;;;8.60;5.32;;;3.50;99.90;;;;;;7270376;32;20338;-58
2021/12/10 00:28:34;;;;;;;8.20;5.30;;;3.50;99.90;;;;;;7260143;32;20282;-60
2021/12/10 00:32:43;;;;;;;7.95;5.82;;;3.60;99.90;;;;;;7272788;32;20278;-60
2021/12/10 00:36:46;;;;;;;9.93;5.68;;;3.50;99.90;;;;;;7269635;32;20247;-58
2021/12/10 00:40:49;;;;;;;9.77;6.00;;;3.50;99.90;;;;;;7265480;32;20131;-60
2021/12/10 00:44:51;;;;;;;9.32;5.80;;;3.50;99.90;;;;;;7273196;32;20108;-58
2021/12/10 00:48:53;;;;;;;9.40;5.90;;;3.50;99.90;;;;;;7258001;32;20503;-57
2021/12/10 00:52:56;;;;;;;7.93;5.75;;;3.50;99.90;;;;;;7259899;32;20108;-59
2021/12/10 00:56:58;;;;;;;7.43;5.65;;;3.50;99.90;;;;;;7273282;32;20132;-60
2021/12/10 01:01:12;;;;;;;10.65;5.50;;;3.50;99.90;;;;;;7272934;32;20100;-58
2021/12/10 01:05:16;;;;;;;9.13;5.82;;;3.60;99.90;;;;;;7273569;32;20142;-59
2021/12/10 01:09:23;;;;;;;10.60;5.37;;;3.60;99.90;;;;;;7272678;32;20232;-59
2021/12/10 01:13:31;;;;;;;9.90;5.68;;;3.60;99.90;;;;;;7274147;32;20140;-57
2021/12/10 01:30:41;;;;;;;8.52;5.57;;;3.50;99.90;;;;;;7273229;32;20120;-59
2021/12/10 01:34:43;;;;;;;9.02;4.62;;;3.50;99.90;;;;;;7272149;32;20139;-58
2021/12/10 01:38:49;;;;;;;10.23;5.00;;;3.40;99.90;;;;;;7272764;32;20126;-58
2021/12/10 01:42:55;;;;;;;9.40;4.78;;;3.40;99.90;;;;;;7276824;32;20120;-58
2021/12/10 01:47:01;;;;;;;10.63;5.12;;;3.30;99.90;;;;;;7275357;32;20221;-59
2021/12/10 01:51:04;;;;;;;8.38;4.80;;;3.30;99.90;;;;;;7274261;32;20116;-58
2021/12/10 01:55:06;;;;;;;7.75;4.95;;;3.20;99.90;;;;;;7274238;32;20126;-59
2021/12/10 01:59:11;;;;;;;7.50;4.87;;;3.20;99.90;;;;;;7276887;32;20253;-60
2021/12/10 02:03:13;;;;;;;8.55;4.90;;;3.10;99.90;;;;;;7275190;32;20210;-58
2021/12/10 02:07:20;;;;;;;7.22;4.45;;;3.00;99.90;;;;;;7267114;32;20112;-58
2021/12/10 02:11:21;;;;;;;11.70;5.55;;;2.90;99.90;;;;;;7271621;32;20231;-58
2021/12/10 02:15:27;;;;;;;6.55;4.30;;;2.90;99.90;;;;;;7270585;32;20210;-59
2021/12/10 02:19:29;;;;;;;11.45;5.10;;;2.90;99.90;;;;;;7276884;32;20187;-60
2021/12/10 02:23:35;;;;;;;8.93;4.40;;;2.80;99.90;;;;;;7276381;32;20124;-58
2021/12/10 02:27:37;;;;;;;8.75;4.30;;;2.80;99.90;;;;;;7271443;32;20218;-58
2021/12/10 02:31:40;;;;;;;9.32;4.53;;;2.80;99.90;;;;;;7276648;32;20208;-58
2021/12/10 02:35:43;;;;;;;10.73;4.15;;;2.80;99.90;;;;;;7276155;32;20143;-58
2021/12/10 02:39:45;;;;;;;6.45;4.12;;;2.80;99.90;;;;;;7275918;32;20203;-60
2021/12/10 02:43:47;;;;;;;8.98;3.80;;;2.70;99.90;;;;;;7267713;32;20235;-58
2021/12/10 02:47:50;;;;;;;8.45;4.40;;;2.70;99.90;;;;;;7275342;32;20535;-59
2021/12/10 02:51:53;;;;;;;7.60;4.07;;;2.70;99.90;;;;;;7274617;32;20127;-61
2021/12/10 02:55:57;;;;;;;8.30;3.85;;;2.70;99.90;;;;;;7272010;32;20112;-58
2021/12/10 02:59:58;;;;;;;7.25;3.20;;;2.70;99.90;;;;;;7274644;32;20152;-59
2021/12/10 03:04:00;;;;;;;5.53;2.70;;;2.70;99.90;;;;;;7266148;32;20250;-60
2021/12/10 03:08:03;;;;;;;7.95;3.28;;;2.70;99.90;;;;;;7270748;32;20108;-57
2021/12/10 03:12:06;;;;;;;7.78;2.70;;;2.70;99.90;;;;;;7266957;32;20127;-60
2021/12/10 03:16:09;;;;;;;7.43;2.47;;;2.80;99.90;;;;;;7273517;32;20135;-64
2021/12/10 03:20:15;;;;;;;7.37;2.62;;;2.70;99.90;;;;;;7274450;32;20147;-59
2021/12/10 03:24:20;;;;;;;8.07;2.70;;;2.70;99.90;;;;;;7274083;32;20216;-59
2021/12/10 03:28:21;;;;;;;5.03;2.92;;;2.70;99.90;;;;;;7274175;32;20642;-60
2021/12/10 03:32:28;;;;;;;7.05;2.58;;;2.70;99.90;;;;;;7272956;32;20721;-60
2021/12/10 03:36:30;;;;;;;5.30;1.98;;;2.70;99.90;;;;;;7269174;32;21534;-59
2021/12/10 03:40:33;;;;;;;9.77;2.28;;;2.60;99.90;;;;;;7274525;32;20770;-59
2021/12/10 03:44:35;;;;;;;6.45;2.10;;;2.70;99.90;;;;;;7274150;32;20247;-58
2021/12/10 03:48:41;;;;;;;7.12;2.00;;;2.70;99.90;;;;;;7270956;32;20184;-59
2021/12/10 03:52:43;;;;;;;5.47;2.43;;;2.70;99.90;;;;;;7274059;32;20178;-58
2021/12/10 03:56:47;;;;;;;4.03;1.42;;;2.60;99.90;;;;;;7271471;32;20104;-58
2021/12/10 04:00:52;;;;;;;4.87;1.37;;;2.70;99.90;;;;;;7272638;32;20134;-59
2021/12/10 04:04:54;;;;;;;5.62;1.33;;;2.70;99.90;;;;;;7274964;32;20111;-58
2021/12/10 04:08:57;;;;;;;5.05;1.12;;;2.80;99.90;;;;;;7259959;32;20132;-58
2021/12/10 04:12:59;;;;;;;5.70;1.67;;;2.80;99.90;;;;;;7273566;32;20140;-60
2021/12/10 04:17:01;;;;;;;4.57;1.35;;;2.80;99.90;;;;;;7273852;32;20353;-60
2021/12/10 04:21:08;;;;;;;8.65;1.48;;;2.80;99.90;;;;;;7270982;32;20191;-57
2021/12/10 04:25:10;;;;;;;9.52;1.08;;;2.80;99.90;;;;;;7273688;32;20140;-59
2021/12/10 04:29:12;;;;;;;8.20;1.50;;;2.80;99.90;;;;;;7274108;32;20120;-58
2021/12/10 04:33:16;;;;;;;5.10;1.20;;;2.90;99.90;;;;;;7258846;32;20226;-59
2021/12/10 04:37:19;;;;;;;8.10;1.35;;;2.90;99.90;;;;;;7272147;32;20112;-59
2021/12/10 04:41:21;;;;;;;6.22;1.12;;;2.90;99.90;;;;;;7270763;32;20555;-60
2021/12/10 04:45:23;;;;;;;6.07;1.27;;;3.00;99.90;;;;;;7273603;32;20303;-58
2021/12/10 04:49:24;;;;;;;2.80;0.80;;;2.90;99.90;;;;;;7272378;32;20117;-58
2021/12/10 04:53:26;;;;;;;7.80;1.25;;;2.90;99.90;;;;;;7272739;32;20801;-60
2021/12/10 04:57:28;;;;;;;7.05;0.93;;;2.90;99.90;;;;;;7273385;32;20476;-60
2021/12/10 05:01:30;;;;;;;5.32;1.10;;;2.90;99.90;;;;;;7271880;32;20441;-60
2021/12/10 05:05:32;;;;;;;5.95;1.00;;;2.90;99.90;;;;;;7274854;32;20147;-58
2021/12/10 05:09:34;;;;;;;6.22;1.12;;;3.00;99.90;;;;;;7254332;32;20112;-58
2021/12/10 05:13:40;;;;;;;9.40;1.37;;;3.00;99.90;;;;;;7268506;32;20135;-59
2021/12/10 05:17:41;;;;;;;6.93;1.17;;;3.00;99.90;;;;;;7277727;32;20516;-59
2021/12/10 05:21:45;;;;;;;5.22;1.15;;;3.10;99.90;;;;;;7272968;32;20130;-59
2021/12/10 05:25:47;;;;;;;7.78;1.33;;;3.00;99.90;;;;;;7272397;32;20819;-60
2021/12/10 05:29:49;;;;;;;6.78;1.60;;;3.00;99.90;;;;;;7278532;32;20544;-59
2021/12/10 05:33:50;;;;;;;3.25;0.90;;;3.00;99.90;;;;;;7268022;32;20246;-59
2021/12/10 05:37:52;;;;;;;7.47;1.45;;;3.00;99.90;;;;;;7272252;32;20108;-58
2021/12/10 05:41:54;;;;;;;6.22;1.85;;;3.00;99.90;;;;;;7276563;32;20108;-56
2021/12/10 05:45:56;;;;;;;4.80;1.65;;;2.90;99.90;;;;;;7273834;32;20151;-56
2021/12/10 05:49:58;;;;;;;5.82;1.60;;;3.00;99.90;;;;;;7277097;32;20515;-58
2021/12/10 05:54:00;;;;;;;3.80;1.20;;;3.00;99.90;;;;;;7275193;32;20232;-56
2021/12/10 05:58:03;;;;;;;8.68;1.77;;;2.90;99.90;;;;;;7275975;32;20136;-57
2021/12/10 06:02:05;;;;;;;6.05;1.62;;;3.00;99.90;;;;;;7272125;32;20238;-59
2021/12/10 06:06:07;;;;;;;6.87;1.80;;;2.90;99.90;;;;;;7273854;32;20522;-57
2021/12/10 06:10:11;;;;;;;7.22;2.10;;;2.90;99.90;;;;;;7274279;32;20124;-57
2021/12/10 06:14:13;;;;;;;6.32;2.03;;;3.00;99.90;;;;;;7273523;32;20549;-56
2021/12/10 06:18:15;;;;;;;8.43;2.05;;;3.00;99.90;;;;;;7274954;32;20131;-58
2021/12/10 06:22:17;;;;;;;8.13;2.08;;;2.90;99.90;;;;;;7275106;32;20195;-57
2021/12/10 06:26:19;;;;;;;7.47;2.33;;;2.90;99.90;;;;;;7271372;32;20112;-58
2021/12/10 06:30:25;;;;;;;10.05;1.65;;;2.90;99.90;;;;;;7270054;32;20151;-58
2021/12/10 06:34:27;;;;;;;3.90;1.30;;;2.80;99.90;;;;;;7274927;32;20633;-56
2021/12/10 06:38:28;;;;;;;13.60;2.47;;;2.80;99.90;;;;;;7273826;32;20992;-59
2021/12/10 06:42:30;;;;;;;8.43;1.75;;;2.80;99.90;;;;;;7272150;32;20104;-57
2021/12/10 06:46:35;;;;;;;6.85;1.60;;;2.80;99.90;;;;;;7269686;32;20104;-55
2021/12/10 06:50:42;;;;;;;4.43;1.48;;;2.90;99.90;;;;;;7273947;32;20669;-58
2021/12/10 06:54:44;;;;;;;11.25;1.48;;;2.80;99.90;;;;;;7270735;32;20228;-58
2021/12/10 06:58:46;;;;;;;7.70;1.70;;;2.80;99.90;;;;;;7275933;32;20157;-56
2021/12/10 07:02:48;;;;;;;8.88;1.85;;;2.80;99.90;;;;;;7273351;32;20468;-57
2021/12/10 07:06:52;;;;;;;8.90;1.70;;;2.80;99.90;;;;;;7277311;32;20104;-60
2021/12/10 07:10:55;;;;;;;5.43;1.80;;;2.80;99.90;;;;;;7272724;32;20109;-58
2021/12/10 07:15:00;;;;;;;6.65;2.20;;;2.80;99.90;;;;;;7260912;32;20270;-57
2021/12/10 07:19:04;;;;;;;4.80;1.35;;;2.70;99.90;;;;;;7271464;32;20116;-57
2021/12/10 07:23:06;;;;;;;5.22;1.55;;;2.80;99.90;;;;;;7270047;32;20130;-56
2021/12/10 07:27:11;;;;;;;5.87;1.50;;;2.90;99.90;;;;;;7265958;32;20674;-55
2021/12/10 07:31:14;;;;;;;8.05;2.00;;;2.80;99.90;;;;;;7272867;32;20207;-58
2021/12/10 07:35:16;;;;;;;6.65;1.50;;;2.90;99.90;;;;;;7255254;32;20140;-57
2021/12/10 07:39:18;;;;;;;2.75;1.10;;;2.90;99.90;;;;;;7267050;32;20260;-57
2021/12/10 07:43:21;;;;;;;5.03;1.05;;;2.90;99.90;;;;;;7263766;32;20132;-57
2021/12/10 07:47:23;;;;;;;8.20;1.52;;;2.90;99.90;;;;;;7261156;32;20214;-56
2021/12/10 07:51:28;;;;;;;6.28;1.30;;;2.90;99.90;;;;;;7268359;32;20187;-58
2021/12/10 07:55:32;;;;;;;7.93;1.10;;;2.90;99.90;;;;;;7273704;32;20146;-59
2021/12/10 07:59:35;;;;;;;4.55;1.15;;;3.00;99.90;;;;;;7271761;32;20130;-59
2021/12/10 08:03:37;;;;;;;5.95;0.90;;;3.00;99.90;;;;;;7272632;32;20136;-60
2021/12/10 08:07:39;;;;;;;9.88;1.15;;;3.00;99.90;;;;;;7272632;32;20203;-59
2021/12/10 08:11:41;;;;;;;3.25;0.80;;;3.10;99.90;;;;;;7270617;32;20130;-56
2021/12/10 08:15:42;;;;;;;7.15;0.90;;;3.20;99.90;;;;;;7257147;32;20109;-58
2021/12/10 08:19:44;;;;;;;6.75;1.30;;;3.30;99.90;;;;;;7261007;32;20122;-56
2021/12/10 08:23:46;;;;;;;2.90;0.95;;;3.30;99.90;;;;;;7258529;32;20191;-56
2021/12/10 08:27:50;;;;;;;11.55;1.37;;;3.30;99.90;;;;;;7260156;32;20225;-58
2021/12/10 08:31:53;;;;;;;3.78;1.25;;;3.40;99.90;;;;;;7258994;32;20112;-58
2021/12/10 08:35:59;;;;;;;10.68;1.40;;;3.40;99.90;;;;;;7276618;32;20464;-60
2021/12/10 08:40:01;;;;;;;7.50;1.52;;;3.50;99.90;;;;;;7249097;32;20543;-56
2021/12/10 08:44:04;;;;;;;7.72;1.35;;;3.50;99.90;;;;;;7265026;32;20444;-60
2021/12/10 08:48:08;;;;;;;6.62;1.55;;;3.60;99.90;;;;;;7267122;32;20226;-58
2021/12/10 08:52:12;;;;;;;7.53;1.70;;;3.70;99.90;;;;;;7245571;32;20240;-58
2021/12/10 08:56:14;;;;;;;6.35;1.33;;;3.70;99.90;;;;;;7256020;32;20279;-60
2021/12/10 09:00:17;;;;;;;5.87;1.30;;;3.80;99.90;;;;;;7252812;32;20139;-59
2021/12/10 09:04:19;;;;;;;5.82;1.12;;;3.80;99.90;;;;;;7257494;32;20211;-57
2021/12/10 09:08:21;;;;;;;8.88;1.50;;;3.90;99.90;;;;;;7257214;32;20139;-57
2021/12/10 09:12:26;;;;;;;5.00;1.10;;;3.90;99.90;;;;;;7258061;32;20521;-58
2021/12/10 09:16:29;;;;;;;6.80;1.80;;;4.10;99.90;;;;;;7257929;32;20104;-58
2021/12/10 09:20:39;;;;;;;7.53;1.52;;;4.10;99.90;;;;;;7258939;32;20109;-57
2021/12/10 09:24:42;;;;;;;6.93;1.20;;;4.30;99.90;;;;;;7251277;32;20704;-58
2021/12/10 09:28:45;;;;;;;5.97;1.17;;;4.40;99.90;;;;;;7256232;32;20112;-56
2021/12/10 09:32:47;;;;;;;5.47;1.30;;;4.50;99.90;;;;;;7257572;32;20129;-58
2021/12/10 09:36:51;;;;;;;6.15;1.27;;;4.50;99.90;;;;;;7250366;32;20293;-57
2021/12/10 09:40:58;;;;;;;5.18;1.20;;;4.60;99.90;;;;;;7258110;32;20108;-57
2021/12/10 09:45:00;;;;;;;5.40;1.00;;;4.70;99.90;;;;;;7257978;32;20561;-58
2021/12/10 09:49:04;;;;;;;3.28;0.90;;;4.60;99.90;;;;;;7258825;32;20183;-57
2021/12/10 09:53:07;;;;;;;4.28;1.17;;;4.40;99.90;;;;;;7254681;32;20538;-58
2021/12/10 09:57:11;;;;;;;4.28;1.30;;;4.50;99.90;;;;;;7253492;32;20864;-58
2021/12/10 10:01:21;;;;;;;8.15;1.62;;;4.50;99.90;;;;;;7255858;32;20112;-56
2021/12/10 10:05:30;;;;;;;4.05;1.27;;;4.70;99.90;;;;;;7260798;32;20192;-58
2021/12/10 10:09:32;;;;;;;4.78;1.20;;;4.80;99.90;;;;;;7260850;32;20211;-57
2021/12/10 10:13:38;;;;;;;9.25;1.50;;;4.80;99.90;;;;;;7263983;32;20672;-57
2021/12/10 10:17:41;;;;;;;6.60;1.37;;;4.70;99.90;;;;;;7266485;32;20105;-56
2021/12/10 10:21:48;;;;;;;4.05;1.20;;;4.70;99.90;;;;;;7313560;26;20130;-61
2021/12/10 10:25:54;;;;;;;7.10;1.42;;;4.60;99.90;;;;;;7292637;32;20214;-59
2021/12/10 10:30:07;;;;;;;4.28;1.08;;;4.70;99.90;;;;;;7303703;32;20130;-61
2021/12/10 10:34:11;;;;;;;5.37;1.52;;;4.70;99.90;;;;;;7278868;32;20215;-60
2021/12/10 10:38:16;;;;;;;6.47;1.35;;;4.60;99.90;;;;;;7277562;32;20112;-61
2021/12/10 10:42:24;;;;;;;5.93;1.42;;;4.60;99.90;;;;;;7275147;32;20112;-60
2021/12/10 10:46:28;;;;;;;3.30;1.27;;;4.70;99.90;;;;;;7272711;32;20628;-59
2021/12/10 10:50:35;;;;;;;1.30;0.80;;;4.70;99.90;;;;;;7276132;32;20634;-59
2021/12/10 10:54:37;;;;;;;4.40;1.30;;;4.80;99.90;;;;;;7273541;32;20393;-59
2021/12/10 10:58:50;;;;;;;7.45;1.20;;;4.90;99.90;;;;;;7283504;32;20480;-60
2021/12/10 11:02:53;;;;;;;7.80;1.27;;;5.00;99.90;;;;;;7271596;32;20591;-60
2021/12/10 11:07:15;;;;;;;6.07;1.23;;;5.00;99.90;;;;;;7272551;32;20496;-60
2021/12/10 11:11:24;;;;;;;5.43;1.02;;;5.00;99.90;;;;;;7275506;32;20135;-60
2021/12/10 11:15:25;;;;;;;5.70;1.20;;;5.00;99.90;;;;;;7275592;32;20242;-58
2021/12/10 11:19:29;;;;;;;4.10;0.93;;;5.00;99.90;;;;;;7280654;32;20103;-58
2021/12/10 11:23:33;;;;;;;4.35;1.00;;;4.90;99.90;;;;;;7271049;32;20622;-61
2021/12/10 11:27:39;;;;;;;6.32;0.95;;;5.00;99.90;;;;;;7276370;32;20192;-60
2021/12/10 11:31:41;;;;;;;4.00;0.93;;;5.00;99.90;;;;;;7272690;32;20140;-60
2021/12/10 11:35:48;;;;;;;4.10;0.80;;;5.10;99.90;;;;;;7271861;32;20183;-60
2021/12/10 11:39:52;;;;;;;4.62;1.00;;;5.20;99.90;;;;;;7278546;32;20200;-59
2021/12/10 11:48:26;;;;;;;4.90;0.80;;;5.20;99.90;;;;;;7264169;32;20139;-61
2021/12/10 11:52:29;;;;;;;5.20;0.88;;;5.30;99.90;;;;;;7269820;32;20253;-60
2021/12/10 11:56:45;;;;;;;7.90;2.90;;;5.50;99.90;;;;;;7247703;32;20570;-61
2021/12/10 12:00:47;;;;;;;6.18;1.00;;;5.50;99.90;;;;;;7268320;32;20148;-59
2021/12/10 12:04:58;;;;;;;5.45;1.23;;;5.60;99.90;;;;;;7262306;32;20133;-60
2021/12/10 12:09:00;;;;;;;7.37;1.05;;;5.60;99.90;;;;;;7270391;32;20134;-61
2021/12/10 12:13:23;;;;;;;2.65;0.70;;;5.70;99.90;;;;;;7264582;32;20117;-60
2021/12/10 12:17:33;;;;;;;6.35;1.00;;;5.70;99.90;;;;;;7274321;32;21348;-60
2021/12/10 12:25:41;;;;;;;5.70;1.02;;;5.60;99.90;;;;;;7274106;32;20143;-61
2021/12/10 12:29:58;;;;;;;4.53;1.23;;;5.60;99.90;;;;;;7275956;32;20108;-60
2021/12/10 12:34:14;;;;;;;4.95;1.05;;;5.80;99.90;;;;;;7272931;32;20891;-61
2021/12/10 12:38:23;;;;;;;1.62;0.55;;;5.70;99.90;;;;;;7268766;32;20541;-59
2021/12/10 12:42:47;;;;;;;2.00;0.60;;;5.60;99.90;;;;;;7277245;32;20524;-60
2021/12/10 12:47:12;;;;;;;4.70;0.90;;;5.70;99.90;;;;;;7262805;32;20143;-60
2021/12/10 12:51:19;;;;;;;4.20;0.80;;;5.60;99.90;;;;;;7270710;32;20132;-60
2021/12/10 12:55:40;;;;;;;4.28;1.00;;;5.60;99.90;;;;;;7272439;32;20234;-62
2021/12/10 12:59:42;;;;;;;3.80;0.90;;;5.60;99.90;;;;;;7267648;32;20126;-61
2021/12/10 13:03:50;;;;;;;4.45;0.93;;;5.40;99.90;;;;;;7262631;32;20113;-60
2021/12/10 13:08:15;;;;;;;5.43;1.10;;;5.60;99.90;;;;;;7263714;32;20238;-60
2021/12/10 13:16:54;;;;;;;3.55;1.10;;;5.50;99.90;;;;;;7259969;32;20462;-60
2021/12/10 13:20:55;;;;;;;5.57;1.48;;;5.40;99.90;;;;;;7267202;32;20749;-60
2021/12/10 13:25:05;;;;;;;2.22;0.88;;;5.50;99.90;;;;;;7268455;32;20597;-59
2021/12/10 13:29:08;;;;;;;6.53;1.15;;;5.50;99.90;;;;;;7254935;32;20203;-59
2021/12/10 13:33:13;;;;;;;6.80;1.83;;;5.50;99.90;;;;;;7255964;32;20115;-59
2021/12/10 13:37:15;;;;;;;6.43;1.25;;;5.40;99.90;;;;;;7270014;32;20120;-60
2021/12/10 13:41:20;;;;;;;3.55;1.02;;;5.40;99.90;;;;;;7260273;32;20112;-60
2021/12/10 13:45:23;;;;;;;6.97;1.20;;;5.30;99.90;;;;;;7261115;32;20119;-61
2021/12/10 13:49:50;;;;;;;4.15;1.15;;;5.20;99.90;;;;;;7265454;32;20112;-60
2021/12/10 13:54:06;;;;;;;3.40;1.10;;;5.30;99.90;;;;;;7269986;32;20120;-60
2021/12/10 13:58:41;;;;;;;7.43;1.45;;;5.10;99.90;;;;;;7268035;32;20109;-59
2021/12/10 14:02:47;;;;;;;5.35;1.30;;;5.30;99.90;;;;;;7269013;32;20484;-60
2021/12/10 14:07:04;;;;;;;1.70;0.90;;;5.20;99.90;;;;;;7268137;32;20495;-60
2021/12/10 14:11:25;;;;;;;7.05;1.20;;;5.20;99.90;;;;;;7272657;32;20187;-60
2021/12/10 14:15:49;;;;;;;5.97;1.02;;;5.00;99.90;;;;;;7268669;32;20481;-59
2021/12/10 14:20:21;;;;;;;4.68;1.40;;;5.10;99.90;;;;;;7274458;32;20147;-61
2021/12/10 14:24:51;;;;;;;6.12;1.65;;;5.00;99.90;;;;;;7272856;32;20108;-60
2021/12/10 14:29:14;;;;;;;4.50;1.40;;;4.90;99.90;;;;;;7276206;32;20536;-58
2021/12/10 14:33:39;;;;;;;3.37;1.33;;;4.80;99.90;;;;;;7268358;32;20124;-61
2021/12/10 14:37:52;;;;;;;4.70;1.42;;;4.80;99.90;;;;;;7275262;32;20187;-58
2021/12/10 14:42:14;;;;;;;6.25;1.00;;;4.80;99.90;;;;;;7275673;32;20116;-60
2021/12/10 14:46:29;;;;;;;3.62;1.33;;;4.80;99.90;;;;;;7268773;32;20100;-60
2021/12/10 14:51:08;;;;;;;5.65;1.30;;;4.80;99.90;;;;;;7273519;32;20155;-59
2021/12/10 14:55:38;;;;;;;3.62;1.30;;;4.80;99.90;;;;;;7263931;32;20104;-59
2021/12/10 14:59:59;;;;;;;4.12;1.45;;;4.60;99.90;;;;;;7273540;32;20104;-60
2021/12/10 15:04:30;;;;;;;4.45;1.25;;;4.50;99.90;;;;;;7266635;32;20183;-60
2021/12/10 15:08:57;;;;;;;4.37;1.35;;;4.40;99.90;;;;;;7265834;32;20221;-61
2021/12/10 15:13:26;;;;;;;7.62;1.70;;;4.40;99.90;;;;;;7261862;32;20104;-59
2021/12/10 15:17:48;;;;;;;5.10;1.50;;;4.40;99.90;;;;;;7275476;32;20477;-59
2021/12/10 15:21:53;;;;;;;3.67;1.60;;;4.40;99.90;;;;;;7267049;32;20183;-59
2021/12/10 15:26:06;;;;;;;4.85;1.60;;;4.30;99.90;;;;;;7266107;32;20499;-59
2021/12/10 15:30:16;;;;;;;3.05;1.40;;;4.20;99.90;;;;;;7255309;32;20104;-59
2021/12/10 15:34:17;;;;;;;4.97;1.37;;;4.20;99.90;;;;;;7266934;32;20123;-59
2021/12/10 15:38:28;;;;;;;4.82;1.40;;;4.10;99.90;;;;;;7269717;32;20342;-59
2021/12/10 15:42:31;;;;;;;6.00;1.77;;;4.00;99.90;;;;;;7253331;32;20568;-59
2021/12/10 15:46:38;;;;;;;4.05;1.40;;;4.00;99.90;;;;;;7266318;32;20113;-60
2021/12/10 15:50:44;;;;;;;4.80;1.73;;;3.90;99.90;;;;;;7282374;32;20104;-58
2021/12/10 15:54:58;;;;;;;6.43;1.52;;;3.80;99.90;;;;;;7263218;32;20108;-60
2021/12/10 15:59:04;;;;;;;4.50;1.48;;;3.80;99.90;;;;;;7256767;32;20108;-58
2021/12/10 16:03:10;;;;;;;7.18;1.75;;;3.70;99.90;;;;;;7275474;32;20547;-60
2021/12/10 16:07:20;;;;;;;4.53;1.92;;;3.80;99.90;;;;;;7257374;32;20710;-59
2021/12/10 16:11:25;;;;;;;4.45;1.60;;;3.80;99.90;;;;;;7260451;32;20212;-60
2021/12/10 16:15:54;;;;;;;5.35;1.55;;;3.70;99.90;;;;;;7257874;32;20128;-58
2021/12/10 16:19:57;;;;;;;7.05;1.92;;;3.70;99.90;;;;;;7263303;32;20133;-59
2021/12/10 16:24:27;;;;;;;5.95;1.40;;;3.70;99.90;;;;;;7273985;32;20540;-60
2021/12/10 16:28:29;;;;;;;4.45;1.73;;;3.80;99.90;;;;;;7267462;32;20728;-60
2021/12/10 16:32:34;;;;;;;8.18;2.90;;;3.70;99.90;;;;;;7278504;32;20126;-60
2021/12/10 16:36:37;;;;;;;7.85;3.53;;;3.70;99.90;;;;;;7273196;32;20100;-61
2021/12/10 16:40:45;;;;;;;8.45;2.47;;;3.60;99.90;;;;;;7259566;32;20105;-59
2021/12/10 16:44:49;;;;;;;4.57;2.45;;;3.60;99.90;;;;;;7258334;32;20513;-59
2021/12/10 16:48:55;;;;;;;4.12;2.40;;;3.50;99.90;;;;;;7266897;32;20222;-60
2021/12/10 16:52:57;;;;;;;7.90;1.83;;;3.60;99.90;;;;;;7261060;32;20126;-58
2021/12/10 16:57:14;;;;;;;5.30;2.12;;;3.50;99.90;;;;;;7273788;32;20445;-59
2021/12/10 17:01:23;;;;;;;6.20;2.67;;;3.60;99.90;;;;;;7269764;32;20231;-59
2021/12/10 17:05:30;;;;;;;4.90;2.62;;;3.50;99.90;;;;;;7262500;32;20131;-57
2021/12/10 17:09:33;;;;;;;7.05;2.30;;;3.40;99.90;;;;;;7271778;32;20277;-59
2021/12/10 17:13:36;;;;;;;4.72;1.60;;;3.30;99.90;;;;;;7269640;32;20130;-59
2021/12/10 17:17:44;;;;;;;6.20;2.00;;;3.30;99.90;;;;;;7281618;32;20174;-59
2021/12/10 17:21:54;;;;;;;5.93;2.22;;;3.30;99.90;;;;;;7275949;32;20116;-60
2021/12/10 17:26:03;;;;;;;3.87;1.75;;;3.20;99.90;;;;;;7295626;32;20134;-60
2021/12/10 17:30:16;;;;;;;7.62;2.22;;;3.10;99.90;;;;;;7288572;32;20127;-60
2021/12/10 17:34:23;;;;;;;6.00;2.67;;;3.10;99.90;;;;;;7278676;32;20148;-60
2021/12/10 17:38:25;;;;;;;4.07;2.30;;;3.10;99.90;;;;;;7285789;32;20105;-59
2021/12/10 17:42:29;;;;;;;3.92;1.83;;;3.10;99.90;;;;;;7283135;32;20131;-59
2021/12/10 17:46:38;;;;;;;3.35;1.50;;;3.10;99.90;;;;;;7275739;32;20681;-60
2021/12/10 17:50:42;;;;;;;6.15;1.90;;;3.00;99.90;;;;;;7287393;32;20131;-60
2021/12/10 17:54:49;;;;;;;3.25;1.52;;;3.00;99.90;;;;;;7287169;32;20123;-59
2021/12/10 17:58:57;;;;;;;7.07;2.10;;;3.00;99.90;;;;;;7275697;32;20105;-60
2021/12/10 18:03:04;;;;;;;5.32;1.95;;;3.00;99.90;;;;;;7276446;32;20206;-60
2021/12/10 18:07:10;;;;;;;5.72;3.90;;;3.00;99.90;;;;;;7280838;32;20769;-59
2021/12/10 18:11:13;;;;;;;6.25;3.22;;;3.00;99.90;;;;;;7282935;32;20195;-60
2021/12/10 18:15:21;;;;;;;3.70;2.62;;;3.00;99.90;;;;;;7275125;32;20532;-59
2021/12/10 18:19:22;;;;;;;8.07;2.00;;;3.10;99.90;;;;;;7274049;32;20649;-58
2021/12/10 18:23:31;;;;;;;7.32;1.60;;;3.00;99.90;;;;;;7271514;32;20100;-60
2021/12/10 18:27:33;;;;;;;6.47;2.08;;;2.90;99.90;;;;;;7266264;32;20108;-61
2021/12/10 18:31:39;;;;;;;4.62;2.30;;;2.90;99.90;;;;;;7251225;32;20501;-59
2021/12/10 18:35:44;;;;;;;7.85;2.40;;;3.00;99.90;;;;;;7263040;32;20119;-60
2021/12/10 18:39:58;;;;;;;5.53;2.60;;;3.00;99.90;;;;;;7268751;32;20180;-59
2021/12/10 18:44:01;;;;;;;9.55;2.92;;;2.90;99.90;;;;;;7274507;32;20096;-59
2021/12/10 18:48:07;;;;;;;6.80;2.62;;;2.90;99.90;;;;;;7278101;32;20209;-59
2021/12/10 18:52:18;;;;;;;4.05;2.75;;;2.90;99.90;;;;;;7273177;32;20142;-60
2021/12/10 18:56:33;;;;;;;5.82;3.15;;;2.90;99.90;;;;;;7254774;32;20513;-59
2021/12/10 19:00:40;;;;;;;7.53;2.25;;;2.80;99.90;;;;;;7267917;32;20108;-60
2021/12/10 19:04:46;;;;;;;7.60;2.22;;;2.80;99.90;;;;;;7263856;32;20287;-60
2021/12/10 19:08:54;;;;;;;5.07;1.87;;;2.70;99.90;;;;;;7261290;32;20350;-60
2021/12/10 19:13:06;;;;;;;6.62;2.35;;;2.60;99.90;;;;;;7285637;32;20104;-60
2021/12/10 19:17:41;;;;;;;5.12;2.10;;;2.60;99.90;;;;;;7252584;32;20100;-59
2021/12/10 19:21:52;;;;;;;6.53;1.87;;;2.50;99.90;;;;;;7268005;32;20195;-59
2021/12/10 19:26:01;;;;;;;5.95;1.90;;;2.50;99.90;;;;;;7274174;32;20103;-60
2021/12/10 19:30:12;;;;;;;8.15;2.15;;;2.50;99.90;;;;;;7276735;32;20247;-58
2021/12/10 19:34:25;;;;;;;4.75;2.30;;;2.40;99.90;;;;;;7270010;32;20128;-60
2021/12/10 19:38:33;;;;;;;6.03;2.15;;;2.30;99.90;;;;;;7276823;32;20105;-60
2021/12/10 19:42:44;;;;;;;5.30;1.90;;;2.20;99.90;;;;;;7280452;32;20104;-59
2021/12/10 19:46:54;;;;;;;4.45;2.05;;;2.00;99.90;;;;;;7266931;32;20370;-60
2021/12/10 19:51:19;;;;;;;6.82;2.05;;;1.90;99.90;;;;;;7265825;32;20126;-59
2021/12/10 19:55:29;;;;;;;3.80;1.98;;;1.80;99.90;;;;;;7267698;32;20105;-58
2021/12/10 19:59:39;;;;;;;5.07;2.12;;;1.70;99.90;;;;;;7263206;32;20127;-61
2021/12/10 20:03:45;;;;;;;4.43;1.90;;;1.50;99.90;;;;;;7275856;32;20505;-59
2021/12/10 20:07:51;;;;;;;9.30;2.35;;;1.40;99.90;;;;;;7268918;32;20706;-60
2021/12/10 20:12:23;;;;;;;4.67;1.93;;;1.30;99.90;;;;;;7265614;32;20128;-59
2021/12/10 20:16:53;;;;;;;16.52;6.70;;;1.20;99.90;;;;;;7275034;32;20315;-59
2021/12/10 20:21:00;;;;;;;20.15;9.93;;;1.00;99.90;;;;;;7278346;32;20115;-58
2021/12/10 20:25:31;;;;;;;16.83;7.78;;;0.90;99.90;;;;;;7267787;32;20813;-59
2021/12/10 20:29:41;;;;;;;15.48;7.30;;;0.80;99.90;;;;;;7257254;32;20202;-59
2021/12/10 20:34:13;;;;;;;11.65;5.45;;;0.60;99.90;;;;;;7259024;32;20187;-59
2021/12/10 20:38:21;;;;;;;15.07;6.12;;;0.50;99.90;;;;;;7274079;32;20343;-59
2021/12/10 20:42:25;;;;;;;8.90;4.93;;;0.40;99.90;;;;;;7271273;32;20105;-60
2021/12/10 20:46:36;;;;;;;7.85;3.72;;;0.40;99.90;;;;;;7273373;32;20126;-60
2021/12/10 20:51:13;;;;;;;7.40;3.45;;;0.30;99.90;;;;;;7277881;32;20100;-60
2021/12/10 20:55:23;;;;;;;7.87;2.92;;;0.10;99.90;;;;;;7256050;32;20128;-59
2021/12/10 20:59:37;;;;;;;5.37;2.65;;;0.10;99.90;;;;;;7267701;32;20124;-60
2021/12/10 21:03:54;;;;;;;4.40;2.22;;;0.10;99.90;;;;;;7260669;32;20100;-60
2021/12/10 21:08:05;;;;;;;3.78;2.33;;;0.00;99.90;;;;;;7270984;32;20096;-59
2021/12/10 21:12:19;;;;;;;11.65;2.70;;;-0.10;99.90;;;;;;7258282;32;20124;-59
2021/12/10 21:16:26;;;;;;;6.47;2.42;;;-0.10;99.90;;;;;;7260958;32;20157;-60
2021/12/10 21:20:42;;;;;;;5.12;2.75;;;-0.20;99.90;;;;;;7254974;32;20136;-60
2021/12/10 21:24:53;;;;;;;6.28;3.15;;;-0.20;99.90;;;;;;7275739;32;20112;-60
2021/12/10 21:29:03;;;;;;;5.78;2.92;;;-0.30;99.90;;;;;;7257950;32;20134;-61
2021/12/10 21:33:11;;;;;;;8.75;2.83;;;-0.30;99.90;;;;;;7262873;32;20144;-58
2021/12/10 21:41:29;;;;;;;7.97;3.35;;;-0.40;99.90;;;;;;7251172;32;20108;-60
2021/12/10 21:45:56;;;;;;;7.03;3.67;;;-0.40;99.90;;;;;;7264911;32;20603;-59
2021/12/10 21:50:05;;;;;;;7.70;3.37;;;-0.40;99.90;;;;;;7269783;32;20120;-58
2021/12/10 21:54:14;;;;;;;10.35;3.47;;;-0.50;99.90;;;;;;7263766;32;20207;-59
2021/12/10 21:58:18;;;;;;;6.35;3.15;;;-0.50;99.90;;;;;;7261161;32;20208;-59
2021/12/10 22:02:29;;;;;;;6.28;3.15;;;-0.50;99.90;;;;;;7275120;32;20241;-60
2021/12/10 22:06:36;;;;;;;9.30;3.53;;;-0.50;99.90;;;;;;7266829;32;20542;-60
2021/12/10 22:10:50;;;;;;;8.75;3.58;;;-0.60;99.90;;;;;;7271439;32;20120;-59
2021/12/10 22:15:26;;;;;;;7.12;3.80;;;-0.60;99.90;;;;;;7261576;32;20505;-59